Time;durP1;ratioP1;P1;durP2;ratioP2;P2;SDS_P1;SDS_P2;PMS_P1;PMS_P2;Temp;Humidity;BMP_temperature;BMP_pressure;BME280_temperature;BME280_humidity;BME280_pressure;Samples;Min_cycle;Max_cycle;Signal;HPM_P1;HPM_P2
2022/06/27 00:00:32;;;;;;;19.33;13.57;;;;;;;16.13;97.67;101464.28;5064695;28;20028;-68
2022/06/27 00:02:58;;;;;;;18.58;14.13;;;;;;;16.12;98.62;101462.59;5046642;28;20082;-68
2022/06/27 00:05:23;;;;;;;17.35;13.60;;;;;;;16.15;99.37;101462.94;5044183;28;20431;-69
2022/06/27 00:07:48;;;;;;;18.73;13.40;;;;;;;16.12;99.37;101470.91;5051680;28;20056;-68
2022/06/27 00:10:15;;;;;;;20.92;13.30;;;;;;;16.08;99.51;101468.66;5065529;28;20025;-69
2022/06/27 00:12:40;;;;;;;19.88;13.98;;;;;;;16.02;99.75;101461.34;5064176;28;20044;-68
2022/06/27 00:15:07;;;;;;;18.35;13.50;;;;;;;16.07;100.00;101460.59;5062803;28;20048;-68
2022/06/27 00:17:33;;;;;;;19.15;14.40;;;;;;;16.06;100.00;101468.06;5045810;28;20045;-68
2022/06/27 00:19:58;;;;;;;18.00;13.50;;;;;;;16.05;100.00;101468.31;5045594;28;20418;-69
2022/06/27 00:22:24;;;;;;;17.95;14.63;;;;;;;16.03;99.81;101460.25;5043460;28;20404;-69
2022/06/27 00:24:50;;;;;;;17.50;14.63;;;;;;;16.02;99.60;101461.34;5056382;28;20032;-68
2022/06/27 00:27:15;;;;;;;20.63;14.80;;;;;;;16.00;99.41;101477.38;5067320;28;20028;-69
2022/06/27 00:29:41;;;;;;;20.10;14.68;;;;;;;16.00;99.78;101469.06;5049166;28;20329;-69
2022/06/27 00:32:07;;;;;;;21.15;14.23;;;;;;;16.00;99.90;101471.00;5059746;28;20090;-69
2022/06/27 00:34:32;;;;;;;20.02;14.95;;;;;;;15.99;100.00;101475.69;5069596;28;20033;-69
2022/06/27 00:36:58;;;;;;;18.40;14.70;;;;;;;15.99;100.00;101489.56;5060766;28;20553;-68
2022/06/27 00:39:23;;;;;;;18.90;15.05;;;;;;;15.99;99.83;101495.09;5068177;28;20024;-69
2022/06/27 00:41:49;;;;;;;20.92;15.50;;;;;;;15.95;98.71;101495.84;5055220;28;20029;-69
2022/06/27 00:44:34;;;;;;;20.17;16.70;;;;;;;15.95;98.74;101488.38;5062336;28;20028;-69
2022/06/27 00:47:00;;;;;;;21.92;15.43;;;;;;;15.89;98.72;101494.91;5064476;28;20028;-68
2022/06/27 00:49:25;;;;;;;20.77;16.27;;;;;;;15.90;99.32;101493.81;5051170;28;20021;-69
2022/06/27 00:51:51;;;;;;;20.42;14.93;;;;;;;15.87;99.60;101494.34;5067708;28;20039;-69
2022/06/27 00:54:17;;;;;;;19.75;14.52;;;;;;;15.88;99.60;101497.94;5069045;28;20024;-69
2022/06/27 00:56:42;;;;;;;19.80;15.57;;;;;;;15.90;99.79;101507.69;5050690;28;20025;-66
2022/06/27 00:59:08;;;;;;;19.58;14.85;;;;;;;15.88;99.66;101501.56;5048640;28;20037;-68
2022/06/27 01:01:33;;;;;;;21.27;15.38;;;;;;;15.86;99.86;101495.41;5048487;28;20026;-69
2022/06/27 01:04:00;;;;;;;18.52;14.02;;;;;;;15.88;100.00;101500.72;5046510;28;20531;-69
2022/06/27 01:06:27;;;;;;;21.93;15.17;;;;;;;15.86;100.00;101498.19;5052379;28;20151;-68
2022/06/27 01:08:52;;;;;;;23.08;14.95;;;;;;;15.88;100.00;101496.03;5062981;28;20342;-67
2022/06/27 01:11:17;;;;;;;20.70;15.98;;;;;;;15.94;100.00;101488.63;5068134;28;20469;-68
2022/06/27 01:13:43;;;;;;;19.98;16.17;;;;;;;15.95;100.00;101493.06;5054077;28;20083;-68
2022/06/27 01:16:09;;;;;;;19.63;15.02;;;;;;;15.95;100.00;101491.16;5065972;28;20024;-68
2022/06/27 01:18:34;;;;;;;20.52;16.80;;;;;;;15.95;100.00;101496.69;5065563;28;20044;-68
2022/06/27 01:21:01;;;;;;;21.58;15.63;;;;;;;15.99;100.00;101514.50;5067179;28;20143;-68
2022/06/27 01:23:26;;;;;;;18.45;15.93;;;;;;;16.03;100.00;101504.59;5067469;28;20614;-68
2022/06/27 01:25:52;;;;;;;21.08;16.10;;;;;;;16.04;100.00;101506.28;5066985;28;20039;-68
2022/06/27 01:28:17;;;;;;;20.83;16.25;;;;;;;16.06;100.00;101509.63;5053183;28;20035;-68
2022/06/27 01:30:43;;;;;;;21.15;16.48;;;;;;;16.12;100.00;101505.03;5046000;28;20040;-69
2022/06/27 01:33:08;;;;;;;21.00;16.58;;;;;;;16.15;100.00;101500.91;5056208;28;20060;-68
2022/06/27 01:35:33;;;;;;;24.48;15.82;;;;;;;16.18;100.00;101500.41;5067169;28;20029;-68
2022/06/27 01:37:59;;;;;;;22.10;16.92;;;;;;;16.18;100.00;101495.69;5066330;28;20111;-68
2022/06/27 01:40:24;;;;;;;21.17;16.45;;;;;;;16.19;100.00;101480.75;5059733;28;20017;-68
2022/06/27 01:42:49;;;;;;;19.75;15.18;;;;;;;16.21;99.55;101474.94;5046444;28;20035;-68
2022/06/27 01:45:15;;;;;;;21.02;15.50;;;;;;;16.19;99.60;101477.97;5055959;28;20063;-68
2022/06/27 01:47:40;;;;;;;20.98;16.27;;;;;;;16.19;99.17;101466.88;5067345;28;20025;-68
2022/06/27 01:50:06;;;;;;;20.70;16.30;;;;;;;16.23;99.53;101464.47;5046196;28;20037;-69
2022/06/27 01:52:32;;;;;;;23.15;15.77;;;;;;;16.20;98.54;101465.78;5046399;28;20025;-68
2022/06/27 01:54:58;;;;;;;20.35;15.65;;;;;;;16.21;99.72;101458.31;5049311;28;20017;-68
2022/06/27 01:57:23;;;;;;;21.88;16.33;;;;;;;16.15;97.85;101462.09;5068024;28;20480;-69
2022/06/27 01:59:52;;;;;;;21.98;16.77;;;;;;;16.15;98.46;101459.31;5057856;28;20024;-69
2022/06/27 02:02:18;;;;;;;19.65;15.82;;;;;;;16.15;99.44;101456.56;5047350;28;20040;-68
2022/06/27 02:04:44;;;;;;;23.05;16.27;;;;;;;16.12;99.76;101444.06;5047742;28;20496;-68
2022/06/27 02:07:11;;;;;;;21.27;15.77;;;;;;;16.13;99.98;101455.97;5047961;28;20082;-69
2022/06/27 02:09:37;;;;;;;22.10;16.27;;;;;;;16.14;99.92;101443.81;5045263;28;20426;-69
2022/06/27 02:12:18;;;;;;;18.42;15.73;;;;;;;16.09;100.00;101447.31;5047345;28;20053;-68
2022/06/27 02:14:48;;;;;;;19.83;15.43;;;;;;;16.06;100.00;101453.38;5048404;28;20036;-69
2022/06/27 02:17:14;;;;;;;24.17;15.98;;;;;;;16.01;100.00;101440.25;5067252;28;20498;-69
2022/06/27 02:19:40;;;;;;;21.50;15.48;;;;;;;15.98;99.97;101445.50;5067237;28;20033;-69
2022/06/27 02:22:06;;;;;;;20.95;16.20;;;;;;;15.98;100.00;101446.31;5066774;28;20166;-69
2022/06/27 02:24:32;;;;;;;19.15;16.35;;;;;;;15.95;100.00;101443.22;5048497;28;20494;-69
2022/06/27 02:26:57;;;;;;;23.83;16.02;;;;;;;15.96;100.00;101433.81;5046355;28;20033;-69
2022/06/27 02:29:22;;;;;;;19.75;15.63;;;;;;;15.99;100.00;101431.38;5066587;28;20035;-69
2022/06/27 02:31:49;;;;;;;22.73;16.25;;;;;;;16.00;100.00;101424.72;5050313;28;20076;-69
2022/06/27 02:34:15;;;;;;;21.23;15.00;;;;;;;16.02;100.00;101418.97;5047104;28;20021;-69
2022/06/27 02:36:41;;;;;;;20.30;15.32;;;;;;;16.01;100.00;101418.09;5047656;28;20106;-69
2022/06/27 02:39:07;;;;;;;22.67;15.32;;;;;;;16.00;100.00;101427.50;5045200;28;20029;-69
2022/06/27 02:41:37;;;;;;;20.70;14.95;;;;;;;16.00;100.00;101430.28;5046659;28;20120;-69
2022/06/27 02:44:06;;;;;;;18.63;15.07;;;;;;;15.92;100.00;101429.88;5051724;28;20032;-69
2022/06/27 02:46:32;;;;;;;19.05;14.65;;;;;;;15.85;100.00;101430.03;5065260;28;20416;-69
2022/06/27 02:48:59;;;;;;;19.60;15.00;;;;;;;15.85;100.00;101426.41;5064544;28;20042;-69
2022/06/27 02:51:27;;;;;;;19.35;14.55;;;;;;;15.83;100.00;101412.84;5060494;28;20036;-69
2022/06/27 02:54:07;;;;;;;21.35;15.05;;;;;;;15.85;100.00;101407.03;5065313;28;20484;-69
2022/06/27 02:56:38;;;;;;;21.10;15.30;;;;;;;15.81;100.00;101406.69;5066615;28;20036;-69
2022/06/27 02:59:09;;;;;;;20.00;15.65;;;;;;;15.79;100.00;101403.34;5051037;28;20060;-69
2022/06/27 03:01:38;;;;;;;22.33;15.77;;;;;;;15.74;100.00;101397.72;5054276;28;20472;-69
2022/06/27 03:04:03;;;;;;;20.25;15.35;;;;;;;15.70;100.00;101404.84;5060510;28;20378;-70
2022/06/27 03:06:29;;;;;;;20.90;15.55;;;;;;;15.65;100.00;101397.28;5046801;28;20045;-69
2022/06/27 03:08:54;;;;;;;19.02;14.57;;;;;;;15.62;100.00;101385.88;5044939;28;20485;-69
2022/06/27 03:11:22;;;;;;;22.70;15.05;;;;;;;15.51;100.00;101393.13;5059022;28;20102;-69
2022/06/27 03:13:48;;;;;;;23.00;15.45;;;;;;;15.41;100.00;101392.94;5065824;28;20037;-69
2022/06/27 03:16:14;;;;;;;17.85;15.20;;;;;;;15.32;100.00;101387.00;5064603;28;20123;-69
2022/06/27 03:18:40;;;;;;;18.65;15.43;;;;;;;15.26;100.00;101390.78;5062490;28;20767;-69
2022/06/27 03:21:05;;;;;;;18.40;14.65;;;;;;;15.20;100.00;101389.81;5056263;28;20388;-69
2022/06/27 03:23:31;;;;;;;22.02;14.88;;;;;;;15.16;100.00;101387.81;5066230;28;20025;-69
2022/06/27 03:25:56;;;;;;;20.23;14.77;;;;;;;15.18;100.00;101392.00;5066094;28;20056;-69
2022/06/27 03:28:22;;;;;;;19.40;14.75;;;;;;;15.13;100.00;101388.31;5051816;28;20055;-69
2022/06/27 03:30:47;;;;;;;18.48;15.10;;;;;;;15.10;100.00;101386.03;5053151;28;20817;-69
2022/06/27 03:33:13;;;;;;;20.88;15.52;;;;;;;15.08;100.00;101393.75;5065449;28;20024;-69
2022/06/27 03:35:39;;;;;;;22.63;15.38;;;;;;;15.05;100.00;101386.75;5045710;28;20120;-69
2022/06/27 03:38:05;;;;;;;23.05;15.23;;;;;;;15.04;100.00;101380.38;5045888;28;20079;-69
2022/06/27 03:40:30;;;;;;;19.42;14.82;;;;;;;15.03;100.00;101378.72;5051639;28;20051;-69
2022/06/27 03:42:56;;;;;;;22.65;15.40;;;;;;;15.01;100.00;101378.13;5061191;28;20107;-69
2022/06/27 03:45:21;;;;;;;21.88;15.85;;;;;;;14.99;100.00;101382.22;5055742;28;20451;-69
2022/06/27 03:47:52;;;;;;;21.05;15.30;;;;;;;14.94;100.00;101382.13;5058013;28;20028;-69
2022/06/27 03:50:20;;;;;;;19.65;14.65;;;;;;;14.87;100.00;101385.03;5044446;28;20025;-69
2022/06/27 03:52:45;;;;;;;22.40;15.43;;;;;;;14.85;100.00;101387.22;5044928;28;20568;-69
2022/06/27 03:55:11;;;;;;;25.02;15.80;;;;;;;14.83;100.00;101383.84;5045919;28;20115;-69
2022/06/27 03:57:39;;;;;;;21.10;15.35;;;;;;;14.78;100.00;101387.34;5046189;28;20750;-69
2022/06/27 04:00:08;;;;;;;22.13;15.68;;;;;;;14.81;100.00;101387.97;5044396;28;20062;-68
2022/06/27 04:02:34;;;;;;;22.63;15.27;;;;;;;14.80;100.00;101389.88;5064947;28;20055;-69
2022/06/27 04:05:00;;;;;;;21.60;15.38;;;;;;;14.75;100.00;101387.84;5059594;28;20025;-69
2022/06/27 04:07:25;;;;;;;20.42;16.17;;;;;;;14.74;100.00;101413.81;5052783;28;20376;-69
2022/06/27 04:09:50;;;;;;;20.88;15.55;;;;;;;14.71;100.00;101413.47;5052216;28;20047;-69
2022/06/27 04:12:15;;;;;;;23.15;16.58;;;;;;;14.75;100.00;101412.75;5071279;28;20041;-70
2022/06/27 04:14:41;;;;;;;20.70;15.57;;;;;;;14.84;100.00;101406.81;5071926;28;20016;-69
2022/06/27 04:17:06;;;;;;;21.73;16.10;;;;;;;14.92;100.00;101393.44;5070684;28;20035;-69
2022/06/27 04:19:31;;;;;;;20.98;15.98;;;;;;;15.03;100.00;101397.25;5062087;28;20405;-69
2022/06/27 04:21:56;;;;;;;25.85;18.55;;;;;;;15.09;100.00;101404.53;5051198;28;20145;-68
2022/06/27 04:24:22;;;;;;;21.63;15.80;;;;;;;15.19;100.00;101404.75;5050973;28;20029;-68
2022/06/27 04:26:47;;;;;;;22.17;16.10;;;;;;;15.30;100.00;101400.22;5050634;28;20037;-69
2022/06/27 04:29:13;;;;;;;22.33;16.10;;;;;;;15.44;100.00;101384.16;5055643;28;20024;-70
2022/06/27 04:31:38;;;;;;;25.70;18.02;;;;;;;15.57;100.00;101375.53;5067046;28;20424;-69
2022/06/27 04:34:04;;;;;;;20.95;15.70;;;;;;;15.66;100.00;101360.22;5069458;28;20031;-69
2022/06/27 04:36:30;;;;;;;20.92;16.02;;;;;;;15.72;100.00;101369.44;5071074;28;20034;-69
2022/06/27 04:38:56;;;;;;;21.20;15.65;;;;;;;15.75;100.00;101368.94;5052035;28;20032;-69
2022/06/27 04:41:21;;;;;;;22.88;17.33;;;;;;;15.78;100.00;101358.19;5054467;28;20008;-69
2022/06/27 04:43:47;;;;;;;24.83;17.60;;;;;;;15.83;100.00;101340.81;5049834;28;20056;-69
2022/06/27 04:46:13;;;;;;;28.30;21.65;;;;;;;15.80;100.00;101335.78;5063848;28;20032;-69
2022/06/27 04:48:38;;;;;;;26.27;19.95;;;;;;;15.80;100.00;101333.00;5071907;28;20341;-69
2022/06/27 04:51:06;;;;;;;23.98;19.38;;;;;;;15.80;100.00;101331.06;5065277;28;20067;-69
2022/06/27 04:53:32;;;;;;;26.42;20.33;;;;;;;15.82;100.00;101333.59;5052216;28;20009;-69
2022/06/27 04:55:57;;;;;;;24.35;20.17;;;;;;;15.85;100.00;101337.78;5051554;28;20056;-69
2022/06/27 04:58:22;;;;;;;28.50;21.02;;;;;;;15.86;100.00;101345.81;5067051;28;20181;-69
2022/06/27 05:00:48;;;;;;;26.98;21.10;;;;;;;15.87;100.00;101350.31;5067315;28;20029;-69
2022/06/27 05:03:13;;;;;;;25.88;21.67;;;;;;;15.88;100.00;101357.50;5060336;28;20025;-69
2022/06/27 05:05:39;;;;;;;24.17;20.92;;;;;;;15.94;100.00;101364.81;5057771;28;20429;-69
2022/06/27 05:08:05;;;;;;;26.90;22.27;;;;;;;15.91;100.00;101357.00;5052216;28;20025;-69
2022/06/27 05:10:30;;;;;;;28.02;22.30;;;;;;;15.90;100.00;101349.78;5060627;28;20028;-68
2022/06/27 05:12:56;;;;;;;30.38;23.90;;;;;;;15.91;100.00;101336.75;5068281;28;20023;-68
2022/06/27 05:15:21;;;;;;;28.25;22.98;;;;;;;15.87;100.00;101339.22;5048223;28;20511;-68
2022/06/27 05:17:47;;;;;;;27.58;21.98;;;;;;;15.85;100.00;101338.63;5048870;28;20028;-68
2022/06/27 05:20:12;;;;;;;28.67;21.88;;;;;;;15.83;100.00;101335.28;5046463;28;20094;-69
2022/06/27 05:22:39;;;;;;;26.92;22.40;;;;;;;15.84;100.00;101339.72;5048400;28;20025;-69
2022/06/27 05:25:05;;;;;;;27.42;23.33;;;;;;;15.87;100.00;101335.63;5050199;28;20091;-69
2022/06/27 05:27:31;;;;;;;28.98;22.60;;;;;;;15.88;100.00;101345.59;5050756;28;20029;-68
2022/06/27 05:29:56;;;;;;;28.27;22.67;;;;;;;15.89;100.00;101348.09;5060700;28;20032;-69
2022/06/27 05:32:21;;;;;;;28.33;22.92;;;;;;;15.91;100.00;101350.59;5068564;28;20027;-69
2022/06/27 05:34:48;;;;;;;27.45;22.80;;;;;;;15.95;100.00;101347.09;5053986;28;20037;-68
2022/06/27 05:37:13;;;;;;;27.33;22.58;;;;;;;15.98;100.00;101348.53;5044226;28;20033;-69
2022/06/27 05:39:40;;;;;;;29.70;23.08;;;;;;;16.00;100.00;101361.00;5060988;28;20033;-70
2022/06/27 05:42:05;;;;;;;26.23;22.05;;;;;;;16.01;100.00;101390.38;5047467;28;20065;-69
2022/06/27 05:44:31;;;;;;;29.15;23.20;;;;;;;16.06;100.00;101409.88;5046545;28;20024;-69
2022/06/27 05:46:58;;;;;;;27.40;22.75;;;;;;;16.15;100.00;101428.84;5053412;28;20393;-69
2022/06/27 05:49:24;;;;;;;28.55;22.80;;;;;;;16.24;100.00;101443.97;5057592;28;20441;-69
2022/06/27 05:51:51;;;;;;;30.67;24.23;;;;;;;16.29;100.00;101436.56;5046928;28;20052;-69
2022/06/27 05:54:17;;;;;;;31.48;24.00;;;;;;;16.37;99.94;101453.84;5056014;28;20033;-68
2022/06/27 05:56:42;;;;;;;29.80;23.60;;;;;;;16.42;99.48;101462.22;5058544;28;20040;-69
2022/06/27 05:59:08;;;;;;;29.10;24.02;;;;;;;16.46;97.49;101475.31;5062100;28;20020;-69
2022/06/27 06:01:33;;;;;;;29.33;23.50;;;;;;;16.51;99.49;101478.19;5047979;28;20055;-69
2022/06/27 06:03:59;;;;;;;30.23;24.60;;;;;;;16.57;97.66;101471.63;5047671;28;20024;-70
2022/06/27 06:06:25;;;;;;;29.75;23.15;;;;;;;16.59;96.03;101469.44;5046077;28;20025;-69
2022/06/27 06:08:52;;;;;;;27.75;22.83;;;;;;;16.64;96.34;101476.16;5047670;28;20033;-69
2022/06/27 06:11:17;;;;;;;28.58;23.27;;;;;;;16.65;95.88;101470.34;5044949;28;20037;-69
2022/06/27 06:13:43;;;;;;;27.83;21.55;;;;;;;16.69;95.43;101460.41;5046041;28;20031;-69
2022/06/27 06:16:09;;;;;;;25.85;22.65;;;;;;;16.70;95.44;101455.69;5045732;28;20086;-69
2022/06/27 06:18:35;;;;;;;36.92;23.63;;;;;;;16.74;97.68;101448.59;5047272;28;20017;-69
2022/06/27 06:21:00;;;;;;;30.25;23.27;;;;;;;16.75;97.41;101453.03;5047110;28;20083;-69
2022/06/27 06:23:26;;;;;;;32.88;23.42;;;;;;;16.76;99.04;101449.16;5065484;28;20473;-69
2022/06/27 06:25:52;;;;;;;35.13;24.60;;;;;;;16.80;99.62;101453.09;5060415;28;20532;-68
2022/06/27 06:28:18;;;;;;;32.47;24.30;;;;;;;16.79;99.47;101462.53;5065780;28;20494;-70
2022/06/27 06:30:44;;;;;;;33.40;24.77;;;;;;;16.76;99.42;101466.63;5054159;28;20108;-70
2022/06/27 06:33:09;;;;;;;31.02;24.88;;;;;;;16.78;98.68;101471.94;5046780;28;20055;-70
2022/06/27 06:35:34;;;;;;;30.92;24.08;;;;;;;16.76;98.50;101476.91;5046202;28;20021;-70
2022/06/27 06:38:02;;;;;;;32.10;25.25;;;;;;;16.76;98.77;101476.91;5046466;28;20467;-70
2022/06/27 06:40:28;;;;;;;30.42;24.48;;;;;;;16.78;98.76;101469.16;5046597;28;20083;-70
2022/06/27 06:42:54;;;;;;;31.58;23.80;;;;;;;16.77;99.25;101471.09;5045327;28;20029;-71
2022/06/27 06:45:20;;;;;;;30.45;24.23;;;;;;;16.79;98.77;101468.06;5044026;28;20033;-70
2022/06/27 06:47:49;;;;;;;31.77;24.30;;;;;;;16.79;98.53;101457.81;5046734;28;20166;-70
2022/06/27 06:50:18;;;;;;;29.52;24.00;;;;;;;16.78;97.74;101445.03;5045807;28;20029;-70
2022/06/27 06:52:52;;;;;;;29.45;24.10;;;;;;;16.80;97.54;101442.84;5046312;28;20033;-70
2022/06/27 06:55:22;;;;;;;29.42;24.17;;;;;;;16.85;98.08;101420.72;5045660;28;20461;-70
2022/06/27 06:57:48;;;;;;;27.75;23.73;;;;;;;16.89;98.11;101409.94;5045532;28;20067;-70
2022/06/27 07:00:14;;;;;;;29.95;24.80;;;;;;;16.92;98.53;101403.84;5043723;28;20029;-70
2022/06/27 07:02:39;;;;;;;33.17;25.65;;;;;;;16.97;98.55;101394.75;5044923;28;20036;-70
2022/06/27 07:05:08;;;;;;;29.60;25.10;;;;;;;17.02;99.67;101408.69;5038248;28;20101;-70
2022/06/27 07:07:34;;;;;;;28.92;24.48;;;;;;;17.08;97.86;101411.28;5042423;28;20028;-70
2022/06/27 07:10:00;;;;;;;28.83;24.23;;;;;;;17.15;95.70;101419.38;5041106;28;20023;-70
2022/06/27 07:12:26;;;;;;;29.80;24.27;;;;;;;17.29;96.64;101417.06;5043619;28;20114;-70
2022/06/27 07:14:54;;;;;;;30.02;25.45;;;;;;;17.42;95.84;101413.84;5044385;28;20381;-68
2022/06/27 07:17:24;;;;;;;29.00;23.42;;;;;;;17.50;95.20;101396.72;5059202;28;20112;-71
2022/06/27 07:19:50;;;;;;;30.52;24.25;;;;;;;17.57;94.23;101391.75;5040131;28;20033;-70
2022/06/27 07:22:15;;;;;;;27.70;24.50;;;;;;;17.62;95.00;101405.69;5046091;28;20028;-71
2022/06/27 07:24:42;;;;;;;29.27;24.30;;;;;;;17.70;95.04;101437.72;5048021;28;20029;-70
2022/06/27 07:27:09;;;;;;;30.80;24.42;;;;;;;17.80;93.87;101434.22;5043744;28;20031;-70
2022/06/27 07:29:35;;;;;;;27.83;23.42;;;;;;;17.86;92.39;101439.56;5044443;28;20029;-70
2022/06/27 07:32:01;;;;;;;27.50;22.75;;;;;;;17.97;90.87;101459.94;5044937;28;20040;-71
2022/06/27 07:34:27;;;;;;;28.38;22.73;;;;;;;18.16;89.91;101465.94;5046048;28;20147;-69
2022/06/27 07:36:52;;;;;;;27.42;22.45;;;;;;;18.39;86.56;101464.69;5044320;28;20025;-70
2022/06/27 07:39:17;;;;;;;27.15;21.80;;;;;;;18.52;87.01;101453.09;5046150;28;20127;-70
2022/06/27 07:41:44;;;;;;;24.48;21.17;;;;;;;18.81;83.11;101453.56;5046188;28;20037;-70
2022/06/27 07:44:10;;;;;;;25.70;21.02;;;;;;;18.88;82.86;101447.75;5045866;28;20330;-70
2022/06/27 07:46:35;;;;;;;28.33;22.00;;;;;;;19.00;81.40;101445.56;5046127;28;20397;-71
2022/06/27 07:49:01;;;;;;;24.08;20.42;;;;;;;19.12;82.46;101471.25;5045707;28;20025;-70
2022/06/27 07:51:27;;;;;;;26.42;20.40;;;;;;;19.33;81.71;101465.72;5044877;28;20029;-71
2022/06/27 07:53:52;;;;;;;24.75;19.15;;;;;;;19.32;78.28;101456.53;5045055;28;20489;-70
2022/06/27 07:56:20;;;;;;;25.33;18.33;;;;;;;19.32;80.07;101464.06;5043853;28;20164;-70
2022/06/27 07:58:48;;;;;;;21.83;16.60;;;;;;;19.17;79.02;101471.25;5043395;28;20032;-69
2022/06/27 08:01:15;;;;;;;23.02;17.80;;;;;;;19.00;82.07;101483.69;5051384;28;20036;-71
2022/06/27 08:03:44;;;;;;;21.80;16.45;;;;;;;18.88;79.54;101479.19;5050063;28;20120;-70
2022/06/27 08:06:14;;;;;;;26.10;17.85;;;;;;;18.81;82.26;101491.69;5045367;28;20036;-69
2022/06/27 08:08:41;;;;;;;25.13;18.15;;;;;;;18.82;80.54;101498.94;5045208;28;20477;-69
2022/06/27 08:11:13;;;;;;;20.75;17.73;;;;;;;18.84;80.39;101499.50;5043475;28;20044;-69
2022/06/27 08:13:40;;;;;;;26.23;18.58;;;;;;;18.96;81.82;101489.00;5039597;28;20028;-70
2022/06/27 08:16:08;;;;;;;22.50;18.17;;;;;;;19.12;81.19;101489.91;5033891;28;20025;-70
2022/06/27 08:18:35;;;;;;;24.55;18.20;;;;;;;19.17;78.03;101496.31;5045493;28;20104;-70
2022/06/27 08:21:01;;;;;;;20.88;16.85;;;;;;;19.26;79.99;101504.13;5045415;28;20354;-70
2022/06/27 08:23:27;;;;;;;22.83;18.52;;;;;;;19.28;79.42;101482.44;5045044;28;20515;-70
2022/06/27 08:25:53;;;;;;;25.08;17.55;;;;;;;19.25;78.94;101482.97;5045143;28;20265;-69
2022/06/27 08:28:20;;;;;;;25.13;17.60;;;;;;;19.21;79.47;101481.84;5044657;28;20025;-69
2022/06/27 08:30:46;;;;;;;23.52;19.15;;;;;;;19.16;79.03;101488.25;5045403;28;20381;-69
2022/06/27 08:33:14;;;;;;;22.75;17.52;;;;;;;19.14;81.68;101498.81;5046241;28;20021;-70
2022/06/27 08:35:44;;;;;;;22.17;17.48;;;;;;;19.09;83.30;101513.53;5045980;28;20055;-70
2022/06/27 08:38:10;;;;;;;25.45;18.63;;;;;;;19.06;81.60;101521.59;5045469;28;20143;-70
2022/06/27 08:40:35;;;;;;;24.02;17.98;;;;;;;18.99;81.86;101529.34;5045960;28;20033;-70
2022/06/27 08:43:01;;;;;;;21.63;17.83;;;;;;;18.92;80.21;101532.41;5042703;28;20041;-70
2022/06/27 08:45:28;;;;;;;23.52;18.67;;;;;;;18.85;82.93;101524.25;5030531;28;20052;-70
2022/06/27 08:47:58;;;;;;;23.42;18.55;;;;;;;18.81;82.42;101527.88;5047816;28;20470;-69
2022/06/27 08:50:24;;;;;;;26.40;19.00;;;;;;;18.81;83.79;101533.44;5049330;28;20021;-69
2022/06/27 08:52:52;;;;;;;23.75;19.17;;;;;;;18.77;83.60;101523.97;5050128;28;20104;-69
2022/06/27 08:55:18;;;;;;;;;;;;;;;18.93;83.74;101520.16;5047528;28;20025;-70
2022/06/27 08:57:43;;;;;;;26.60;19.08;;;;;;;18.81;84.78;101522.31;5048495;28;19970;-70
2022/06/27 09:00:11;;;;;;;24.05;19.88;;;;;;;18.81;80.72;101516.75;5047522;28;20029;-70
2022/06/27 09:02:44;;;;;;;24.30;19.35;;;;;;;18.77;84.88;101519.22;5029842;28;20032;-70
2022/06/27 09:05:19;;;;;;;23.90;20.23;;;;;;;18.90;84.55;101526.25;5029592;28;20032;-70
2022/06/27 09:07:54;;;;;;;27.75;21.58;;;;;;;19.00;82.28;101536.59;5029536;28;20033;-70
2022/06/27 09:10:30;;;;;;;25.65;21.85;;;;;;;19.06;81.87;101541.06;5042323;28;20379;-70
2022/06/27 09:13:08;;;;;;;25.80;21.40;;;;;;;19.20;82.89;101550.63;5047580;28;20447;-69
2022/06/27 09:15:40;;;;;;;24.63;20.70;;;;;;;19.31;82.51;101540.34;5046002;28;20116;-70
2022/06/27 09:18:07;;;;;;;26.88;20.98;;;;;;;19.43;81.72;101540.97;5046132;28;20037;-70
2022/06/27 09:20:48;;;;;;;25.67;21.58;;;;;;;19.62;81.10;101533.84;5048333;28;20013;-70
2022/06/27 09:23:41;;;;;;;26.55;21.52;;;;;;;19.84;81.57;101522.44;5048956;28;20040;-69
2022/06/27 09:26:19;;;;;;;24.38;20.30;;;;;;;19.94;77.86;101519.66;5046317;28;20044;-70
2022/06/27 09:28:48;;;;;;;26.52;19.55;;;;;;;20.12;77.82;101523.88;5040592;28;20861;-70
2022/06/27 09:31:26;;;;;;;26.88;20.60;;;;;;;20.34;78.26;101537.53;5044554;28;20408;-71
2022/06/27 09:34:14;;;;;;;;;;;;;;;20.42;76.31;101542.53;5041265;28;20023;-70
2022/06/27 09:36:48;;;;;;;20.23;17.95;;;;;;;20.28;75.60;101537.81;5043426;28;20007;-71
2022/06/27 09:39:18;;;;;;;22.73;18.08;;;;;;;20.36;75.39;101542.81;5042188;28;20041;-71
2022/06/27 09:41:50;;;;;;;22.45;17.88;;;;;;;20.43;74.05;101540.63;5038105;28;20025;-71
2022/06/27 09:44:21;;;;;;;21.75;18.50;;;;;;;20.42;75.98;101534.16;5044924;28;20032;-70
2022/06/27 09:46:51;;;;;;;22.40;17.70;;;;;;;20.44;76.92;101528.31;5045563;28;20511;-71
2022/06/27 09:49:17;;;;;;;23.98;17.15;;;;;;;20.56;74.12;101533.63;5048309;28;20111;-71
2022/06/27 09:51:42;;;;;;;20.80;16.83;;;;;;;20.73;74.47;101529.44;5047411;28;20029;-71
2022/06/27 09:54:11;;;;;;;21.05;17.17;;;;;;;20.97;74.87;101523.22;5042478;28;20052;-72
2022/06/27 09:56:39;;;;;;;21.13;16.02;;;;;;;21.28;72.00;101523.94;5042031;28;20109;-72
2022/06/27 09:59:08;;;;;;;;;;;;;;;21.57;74.52;101529.69;5045370;28;20052;-72
2022/06/27 10:01:35;;;;;;;21.38;15.75;;;;;;;21.41;67.32;101514.13;5045024;28;19924;-72
2022/06/27 10:04:02;;;;;;;22.88;15.35;;;;;;;21.34;67.63;101525.63;5040949;28;20464;-72
2022/06/27 10:06:31;;;;;;;19.83;14.60;;;;;;;21.22;69.68;101516.69;5047276;28;20170;-71
2022/06/27 10:08:58;;;;;;;19.02;14.13;;;;;;;21.11;70.42;101517.88;5047424;28;20025;-71
2022/06/27 10:11:24;;;;;;;20.15;12.95;;;;;;;20.98;65.23;101506.19;5046420;28;20040;-72
2022/06/27 10:14:11;;;;;;;16.00;12.13;;;;;;;21.12;69.56;101503.59;5044303;28;20033;-71
2022/06/27 10:16:56;;;;;;;18.55;15.40;;;;;;;21.28;67.35;101497.94;5046547;28;20128;-71
2022/06/27 10:19:23;;;;;;;19.70;14.85;;;;;;;21.59;69.65;101501.44;5048684;28;20021;-71
2022/06/27 10:21:49;;;;;;;18.85;15.00;;;;;;;21.95;63.60;101505.69;5042800;28;20458;-70
2022/06/27 10:24:27;;;;;;;20.40;14.05;;;;;;;22.25;65.65;101506.56;5041330;28;20029;-70
2022/06/27 10:26:56;;;;;;;19.80;14.25;;;;;;;22.49;62.39;101496.28;5045815;28;20447;-71
2022/06/27 10:29:27;;;;;;;16.23;12.93;;;;;;;22.75;65.15;101504.41;5046180;28;20036;-71
2022/06/27 10:31:53;;;;;;;20.00;15.48;;;;;;;22.93;64.88;101500.06;5050815;28;20041;-70
2022/06/27 10:34:38;;;;;;;16.80;13.80;;;;;;;23.05;65.19;101497.66;5052720;28;20037;-71
2022/06/27 10:37:19;;;;;;;19.13;13.93;;;;;;;22.93;63.62;101497.25;5047108;28;20547;-71
2022/06/27 10:39:44;;;;;;;16.65;13.98;;;;;;;22.57;60.51;101496.78;5046535;28;20086;-71
2022/06/27 10:42:49;;;;;;;18.65;14.43;;;;;;;22.24;64.79;101502.94;5044147;28;20025;-71
2022/06/27 10:45:20;;;;;;;19.90;15.82;;;;;;;21.83;64.71;101510.78;5041442;28;20028;-71
2022/06/27 10:47:46;;;;;;;18.83;14.65;;;;;;;21.57;60.08;101501.75;5046477;28;20040;-71
2022/06/27 10:50:16;;;;;;;18.45;14.95;;;;;;;21.60;63.16;101495.59;5045756;28;20064;-68
2022/06/27 10:52:42;;;;;;;22.00;16.75;;;;;;;21.52;64.51;101509.31;5042668;28;20384;-70
2022/06/27 10:55:29;;;;;;;20.75;17.13;;;;;;;21.41;64.76;101497.38;5046021;28;20021;-70
2022/06/27 10:57:56;;;;;;;21.23;17.05;;;;;;;21.36;67.00;101500.19;5045635;28;20033;-70
2022/06/27 11:00:38;;;;;;;20.30;16.75;;;;;;;21.31;68.15;101503.00;5047144;28;20021;-70
2022/06/27 11:03:03;;;;;;;19.50;14.65;;;;;;;21.11;68.95;101504.72;5046273;28;20102;-70
2022/06/27 11:05:30;;;;;;;18.92;14.05;;;;;;;20.93;62.78;101508.13;5046644;28;20108;-71
2022/06/27 11:07:56;;;;;;;16.63;12.07;;;;;;;20.72;66.48;101521.31;5043513;28;20029;-70